Página principal
METAR-TAF:

METAR-TAF

Aeroportos :

Bahrein, Bahrein

Aeroporto Internacional do Bahrain

latitude: 26-16N, longitude: 050-39E, altura: 2 m

Observação actual do tempo

O boletim foi feito há 31 minutos, às 13:00 UTC
Vento 6 kt de nor-nordeste, variando entre norte e es-nordeste
Temperatura 21°C
Humidade 64%
Pressão 1012 hPa
Visibilidade 10 km ou mais
sem nuvens abaixo de 1500 metros e sem cumulonimbus

METAR: OBBI 211300Z 02006KT 350V060 CAVOK 21/14 Q1012 NOSIG

Hora: 16:31 (13:31 UTC)

Previsão

O boletim foi feito há 26 horas e 31 minutos, às 11:00 UTC
Previsão válida de 20 às 12 UTC a 21 às 18 UTC
Vento 10 kt de nor-noroeste
Visibilidade: 7000 m

TAF: OBBI 201100Z 2012/2118 34010KT 7000 NSC

Observações e previsões do tempo de mais de 4000 aeroportos (mensagens METAR e TAF).

As estações disponíveis são os pontos amarelos e vermelhos sobre o mapa.

Mova o rato sobre o mapa para ver o nome da estação.

Depois clique no ponto para visualizar as observações e previsões meteorológicas.

Para alterar o mapa : clique nos botões verdes com uma cruz preta para aumentar o zoom; no botão verde com uma pitada de zoom; ou nas setas verdes para mapas adjacentes.


METAR-TAF: